createdAt,value
2018-02-12T00:02:23.763Z,39.70
2018-02-12T00:04:52.478Z,39.60
2018-02-12T00:07:21.217Z,39.60
2018-02-12T00:09:49.561Z,39.60
2018-02-12T00:12:17.945Z,39.60
2018-02-12T00:14:46.334Z,39.60
2018-02-12T00:17:14.676Z,39.60
2018-02-12T00:19:43.423Z,39.40
2018-02-12T00:22:14.095Z,39.40
2018-02-12T00:24:42.851Z,39.30
2018-02-12T00:27:11.197Z,39.30
2018-02-12T00:29:39.543Z,39.30
2018-02-12T00:32:08.341Z,39.30
2018-02-12T00:34:37.010Z,39.30
2018-02-12T00:37:05.349Z,39.10
2018-02-12T00:39:33.722Z,39.10
2018-02-12T00:42:02.058Z,39.10
2018-02-12T00:44:30.770Z,39.10
2018-02-12T00:46:59.249Z,39.10
2018-02-12T00:49:27.604Z,39.00
2018-02-12T00:51:56.349Z,39.00
2018-02-12T00:54:24.731Z,39.00
2018-02-12T00:56:53.347Z,39.00
2018-02-12T00:59:22.089Z,38.80
2018-02-12T01:01:50.446Z,38.80
2018-02-12T01:04:18.767Z,38.80
2018-02-12T01:06:47.109Z,38.80
2018-02-12T01:09:15.471Z,38.80
2018-02-12T01:11:43.819Z,38.70
2018-02-12T01:14:12.531Z,38.70
2018-02-12T01:16:40.913Z,38.70
2018-02-12T01:19:09.263Z,38.70
2018-02-12T01:21:38.012Z,38.70
2018-02-12T01:24:06.504Z,38.70
2018-02-12T01:26:34.830Z,38.70
2018-02-12T01:29:03.182Z,38.70
2018-02-12T01:31:32.018Z,38.70
2018-02-12T01:34:00.653Z,38.70
2018-02-12T01:36:28.970Z,38.70
2018-02-12T01:38:57.331Z,38.70
2018-02-12T01:41:26.373Z,38.70
2018-02-12T01:43:54.723Z,38.50
2018-02-12T01:46:23.124Z,38.50
2018-02-12T01:48:51.447Z,38.50
2018-02-12T01:51:20.185Z,38.50
2018-02-12T01:53:49.021Z,38.50
2018-02-12T01:56:17.405Z,38.50
2018-02-12T01:58:46.117Z,38.50
2018-02-12T02:01:14.509Z,38.40
2018-02-12T02:03:42.838Z,38.40
2018-02-12T02:06:11.564Z,38.40
2018-02-12T02:08:40.203Z,38.40
2018-02-12T02:11:08.555Z,38.40
2018-02-12T02:13:36.875Z,38.40
2018-02-12T02:16:05.265Z,38.40
2018-02-12T02:18:33.917Z,38.10
2018-02-12T02:21:02.645Z,38.10
2018-02-12T02:23:31.393Z,38.10
2018-02-12T02:25:59.974Z,38.10
2018-02-12T02:28:28.665Z,38.10
2018-02-12T02:30:57.046Z,38.10
2018-02-12T02:33:25.793Z,38.10
2018-02-12T02:35:54.123Z,38.10
2018-02-12T02:38:22.882Z,38.10
2018-02-12T02:40:51.237Z,38.10
2018-02-12T02:43:19.563Z,38.10
2018-02-12T02:45:48.337Z,38.10
2018-02-12T02:48:16.914Z,38.10
2018-02-12T02:50:45.606Z,38.10
2018-02-12T02:53:13.994Z,38.10
2018-02-12T02:55:42.744Z,38.10
2018-02-12T02:58:11.166Z,38.10
2018-02-12T03:00:39.925Z,37.90
2018-02-12T03:03:08.242Z,37.90
2018-02-12T03:05:36.677Z,37.90
2018-02-12T03:08:05.029Z,37.90
2018-02-12T03:10:33.652Z,37.90
2018-02-12T03:13:02.022Z,37.90
2018-02-12T03:15:30.381Z,37.90
2018-02-12T03:17:58.772Z,37.90
2018-02-12T03:20:27.154Z,37.90
2018-02-12T03:22:55.503Z,37.80
2018-02-12T03:25:23.911Z,37.80
2018-02-12T03:27:52.266Z,37.80
2018-02-12T03:30:20.890Z,37.80
2018-02-12T03:32:49.234Z,37.80
2018-02-12T03:35:17.623Z,37.80
2018-02-12T03:37:46.043Z,37.80
2018-02-12T03:40:14.801Z,37.80
2018-02-12T03:42:43.606Z,37.80
2018-02-12T03:45:12.350Z,37.60
2018-02-12T03:47:40.666Z,37.60
2018-02-12T03:50:09.019Z,37.60
2018-02-12T03:52:37.339Z,37.60
2018-02-12T03:55:06.079Z,37.60
2018-02-12T03:57:34.417Z,37.60
2018-02-12T04:00:02.773Z,37.60
2018-02-12T04:02:31.566Z,37.60
2018-02-12T04:05:00.317Z,37.60
2018-02-12T04:07:28.790Z,37.60
2018-02-12T04:09:58.029Z,37.60
2018-02-12T04:12:26.953Z,37.50
2018-02-12T04:14:55.274Z,37.50
2018-02-12T04:17:23.639Z,37.50
2018-02-12T04:19:51.961Z,37.50
2018-02-12T04:22:20.705Z,37.50
2018-02-12T04:24:49.121Z,37.50
2018-02-12T04:27:17.846Z,37.50
2018-02-12T04:29:46.655Z,37.50
2018-02-12T04:32:15.026Z,37.50
2018-02-12T04:34:43.642Z,37.50
2018-02-12T04:37:12.002Z,37.50
2018-02-12T04:39:40.333Z,37.40
2018-02-12T04:42:08.657Z,37.40
2018-02-12T04:44:37.039Z,37.40
2018-02-12T04:47:05.421Z,37.40
2018-02-12T04:49:34.014Z,37.40
2018-02-12T04:52:02.342Z,37.40
2018-02-12T04:54:30.981Z,37.40
2018-02-12T04:56:59.711Z,37.40
2018-02-12T04:59:28.040Z,37.40
2018-02-12T05:01:56.363Z,37.40
2018-02-12T05:04:24.694Z,37.20
2018-02-12T05:06:53.167Z,37.20
2018-02-12T05:09:21.535Z,37.20
2018-02-12T05:11:49.862Z,37.20
2018-02-12T05:14:18.233Z,37.20
2018-02-12T05:16:46.664Z,37.20
2018-02-12T05:19:15.021Z,37.20
2018-02-12T05:21:43.387Z,37.20
2018-02-12T05:24:11.710Z,37.20
2018-02-12T05:26:40.053Z,37.20
2018-02-12T05:29:08.689Z,37.20
2018-02-12T05:31:37.412Z,37.20
2018-02-12T05:34:05.737Z,37.20
2018-02-12T05:36:34.533Z,37.20
2018-02-12T05:39:02.855Z,37.20
2018-02-12T05:41:31.215Z,37.10
2018-02-12T05:43:59.572Z,37.10
2018-02-12T05:46:28.368Z,37.10
2018-02-12T05:48:57.223Z,37.10
2018-02-12T05:51:25.598Z,37.10
2018-02-12T05:53:54.000Z,37.10
2018-02-12T05:56:22.345Z,37.10
2018-02-12T05:58:50.696Z,37.10
2018-02-12T06:01:19.081Z,37.10
2018-02-12T06:03:48.651Z,37.10
2018-02-12T06:06:17.407Z,36.90
2018-02-12T06:08:45.889Z,36.90
2018-02-12T06:11:14.214Z,37.10
2018-02-12T06:13:42.666Z,36.90
2018-02-12T06:16:11.129Z,36.90
2018-02-12T06:18:39.474Z,36.90
2018-02-12T06:21:07.884Z,36.90
2018-02-12T06:23:36.230Z,38.70
2018-02-12T06:26:04.587Z,38.20
2018-02-12T06:28:32.945Z,38.50
2018-02-12T06:31:01.400Z,38.40
2018-02-12T06:33:29.719Z,38.10
2018-02-12T06:35:58.086Z,38.10
2018-02-12T06:38:26.834Z,37.80
2018-02-12T06:40:55.208Z,37.90
2018-02-12T06:43:23.570Z,37.80
2018-02-12T06:45:51.921Z,37.60
2018-02-12T06:48:20.355Z,37.60
2018-02-12T06:50:48.697Z,37.50
2018-02-12T06:53:17.931Z,37.50
2018-02-12T06:55:46.310Z,37.40
2018-02-12T06:58:14.647Z,37.40
2018-02-12T07:00:42.999Z,37.20
2018-02-12T07:03:11.443Z,37.20
2018-02-12T07:05:39.781Z,37.20
2018-02-12T07:08:08.204Z,37.10
2018-02-12T07:10:36.567Z,37.10
2018-02-12T07:13:04.976Z,37.10
2018-02-12T07:15:34.457Z,36.90
2018-02-12T07:18:03.035Z,36.90
2018-02-12T07:20:31.643Z,36.90
2018-02-12T07:23:00.008Z,36.90
2018-02-12T07:25:28.342Z,36.90
2018-02-12T07:27:56.784Z,36.80
2018-02-12T07:30:25.118Z,36.80
2018-02-12T07:32:53.539Z,36.80
2018-02-12T07:35:21.901Z,36.60
2018-02-12T07:37:50.265Z,36.50
2018-02-12T07:40:18.847Z,36.50
2018-02-12T07:42:47.279Z,36.50
2018-02-12T07:45:15.644Z,36.30
2018-02-12T07:47:44.397Z,36.30
2018-02-12T07:50:14.420Z,36.30
2018-02-12T07:52:43.282Z,36.20
2018-02-12T07:55:11.680Z,36.20
2018-02-12T07:57:40.027Z,36.20
2018-02-12T08:00:08.374Z,36.00
2018-02-12T08:02:36.756Z,35.90
2018-02-12T08:05:05.634Z,35.70
2018-02-12T08:07:33.961Z,35.70
2018-02-12T08:10:02.332Z,35.60
2018-02-12T08:12:30.680Z,35.60
2018-02-12T08:14:59.430Z,35.60
2018-02-12T08:17:27.782Z,35.60
2018-02-12T08:19:56.831Z,35.40
2018-02-12T08:22:25.546Z,35.40
2018-02-12T08:24:53.940Z,35.40
2018-02-12T08:27:22.458Z,35.10
2018-02-12T08:29:50.838Z,35.30
2018-02-12T08:32:19.192Z,35.10
2018-02-12T08:34:47.557Z,35.10
2018-02-12T08:37:15.907Z,35.00
2018-02-12T08:39:44.728Z,35.00
2018-02-12T08:42:13.118Z,35.00
2018-02-12T08:44:41.513Z,35.00
2018-02-12T08:47:09.861Z,35.00
2018-02-12T08:49:38.210Z,35.00
2018-02-12T08:52:06.954Z,35.10
2018-02-12T08:54:35.376Z,35.10
2018-02-12T08:57:04.840Z,35.10
2018-02-12T08:59:34.088Z,35.10
2018-02-12T09:02:02.750Z,35.10
2018-02-12T09:04:31.331Z,35.10
2018-02-12T09:06:59.697Z,35.10
2018-02-12T09:09:28.045Z,35.10
2018-02-12T09:11:56.778Z,35.10
2018-02-12T09:14:25.120Z,35.10
2018-02-12T09:16:53.441Z,35.00
2018-02-12T09:19:22.174Z,35.10
2018-02-12T09:21:50.507Z,35.10
2018-02-12T09:24:19.265Z,35.00
2018-02-12T09:26:48.041Z,35.00
2018-02-12T09:29:16.423Z,35.00
2018-02-12T09:31:44.768Z,35.10
2018-02-12T09:34:13.406Z,35.10
2018-02-12T09:36:41.765Z,35.10
2018-02-12T09:39:10.366Z,35.10
2018-02-12T09:41:38.726Z,35.10
2018-02-12T09:44:07.433Z,35.10
2018-02-12T09:46:35.834Z,35.10
2018-02-12T09:49:04.374Z,35.10
2018-02-12T09:51:33.086Z,35.00
2018-02-12T09:54:01.982Z,35.00
2018-02-12T09:56:30.837Z,35.00
2018-02-12T09:58:59.154Z,35.00
2018-02-12T10:01:28.049Z,34.80
2018-02-12T10:03:56.822Z,34.80
2018-02-12T10:06:25.206Z,34.80
2018-02-12T10:08:54.061Z,34.70
2018-02-12T10:11:22.389Z,34.70
2018-02-12T10:13:50.746Z,34.70
2018-02-12T10:16:19.513Z,34.00
2018-02-12T10:18:48.110Z,34.10
2018-02-12T10:21:16.465Z,33.70
2018-02-12T10:23:44.822Z,33.50
2018-02-12T10:26:13.519Z,33.50
2018-02-12T10:28:41.861Z,33.40
2018-02-12T10:31:10.206Z,32.90
2018-02-12T10:33:38.575Z,32.80
2018-02-12T10:36:06.978Z,32.80
2018-02-12T10:38:35.703Z,32.90
2018-02-12T10:41:04.062Z,32.90
2018-02-12T10:43:32.458Z,33.10
2018-02-12T10:46:00.794Z,32.90
2018-02-12T10:48:29.539Z,33.40
2018-02-12T10:50:57.901Z,33.40
2018-02-12T10:53:26.282Z,33.20
2018-02-12T10:55:54.668Z,33.40
2018-02-12T10:58:23.017Z,33.50
2018-02-12T11:00:52.216Z,33.50
2018-02-12T11:03:20.558Z,33.50
2018-02-12T11:05:48.899Z,33.70
2018-02-12T11:08:17.584Z,33.80
2018-02-12T11:10:45.940Z,33.80
2018-02-12T11:13:14.298Z,34.00
2018-02-12T11:15:42.723Z,33.80
2018-02-12T11:18:11.098Z,34.00
2018-02-12T11:20:39.487Z,34.00
2018-02-12T11:23:08.081Z,34.00
2018-02-12T11:25:36.690Z,33.80
2018-02-12T11:28:05.142Z,48.60
2018-02-12T11:30:33.470Z,48.00
2018-02-12T11:33:01.829Z,49.60
2018-02-12T11:35:30.294Z,49.00
2018-02-12T11:37:59.092Z,46.70
2018-02-12T11:40:27.953Z,45.00
2018-02-12T11:42:56.327Z,45.00
2018-02-12T11:45:24.665Z,43.10
2018-02-12T11:47:53.010Z,42.20
2018-02-12T11:50:21.379Z,42.20
2018-02-12T11:52:49.858Z,41.50
2018-02-12T11:55:18.327Z,40.70
2018-02-12T11:57:46.711Z,39.40
2018-02-12T12:00:15.334Z,39.70
2018-02-12T12:02:44.692Z,39.00
2018-02-12T12:05:13.372Z,39.00
2018-02-12T12:07:41.733Z,39.00
2018-02-12T12:10:10.134Z,36.80
2018-02-12T12:12:38.461Z,35.90
2018-02-12T12:15:06.829Z,32.60
2018-02-12T12:17:35.365Z,30.10
2018-02-12T12:20:04.158Z,31.40
2018-02-12T12:22:32.870Z,31.60
2018-02-12T12:25:01.450Z,29.50
2018-02-12T12:27:29.806Z,28.90
2018-02-12T12:29:58.198Z,28.50
2018-02-12T12:32:26.789Z,27.30
2018-02-12T12:34:55.110Z,26.50
2018-02-12T12:37:23.477Z,26.50
2018-02-12T12:39:51.869Z,26.60
2018-02-12T12:42:20.233Z,25.80
2018-02-12T12:44:48.595Z,24.10
2018-02-12T12:47:17.392Z,24.50
2018-02-12T12:49:45.757Z,24.40
2018-02-12T12:52:14.524Z,24.70
2018-02-12T12:54:42.933Z,24.70
2018-02-12T12:57:11.671Z,25.10
2018-02-12T12:59:40.290Z,25.10
2018-02-12T13:02:09.387Z,25.70
2018-02-12T13:04:38.478Z,25.80
2018-02-12T13:07:07.344Z,25.50
2018-02-12T13:09:35.713Z,25.50
2018-02-12T13:12:04.205Z,25.90
2018-02-12T13:14:32.975Z,26.40
2018-02-12T13:17:01.346Z,27.00
2018-02-12T13:19:29.697Z,27.90
2018-02-12T13:21:58.538Z,27.80
2018-02-12T13:24:26.874Z,27.80
2018-02-12T13:26:55.221Z,27.80
2018-02-12T13:29:24.154Z,28.50
2018-02-12T13:31:52.495Z,28.50
2018-02-12T13:34:21.577Z,28.60
2018-02-12T13:36:50.427Z,28.90
2018-02-12T13:39:18.784Z,28.90
2018-02-12T13:41:47.121Z,28.80
2018-02-12T13:44:15.478Z,27.90
2018-02-12T13:46:43.839Z,26.90
2018-02-12T13:49:12.281Z,27.50
2018-02-12T13:51:40.645Z,27.40
2018-02-12T13:54:09.615Z,26.20
2018-02-12T13:56:37.958Z,26.20
2018-02-12T13:59:07.250Z,26.90
2018-02-12T14:01:35.646Z,26.30
2018-02-12T14:04:04.039Z,25.80
2018-02-12T14:06:32.755Z,25.50
2018-02-12T14:09:01.403Z,25.00
2018-02-12T14:11:30.197Z,24.30
2018-02-12T14:13:58.811Z,24.30
2018-02-12T14:16:27.265Z,24.10
2018-02-12T14:18:55.764Z,23.60
2018-02-12T14:21:24.124Z,23.70
2018-02-12T14:23:52.470Z,23.60
2018-02-12T14:26:20.983Z,23.60
2018-02-12T14:28:49.392Z,23.90
2018-02-12T14:31:17.736Z,24.00
2018-02-12T14:33:46.351Z,24.20
2018-02-12T14:36:14.702Z,24.40
2018-02-12T14:38:43.059Z,24.40
2018-02-12T14:41:11.452Z,24.20
2018-02-12T14:43:39.824Z,24.20
2018-02-12T14:46:08.187Z,24.30
2018-02-12T14:48:36.822Z,24.00
2018-02-12T14:51:05.217Z,23.90
2018-02-12T14:53:33.761Z,24.10
2018-02-12T14:56:02.125Z,24.10
2018-02-12T14:58:30.510Z,24.00
2018-02-12T15:00:58.846Z,24.00
2018-02-12T15:03:27.225Z,24.10
2018-02-12T15:05:55.621Z,23.90
2018-02-12T15:08:23.950Z,24.40
2018-02-12T15:10:52.333Z,24.70
2018-02-12T15:13:21.147Z,25.30
2018-02-12T15:15:49.580Z,25.30
2018-02-12T15:18:18.642Z,25.50
2018-02-12T15:20:47.058Z,25.50
2018-02-12T15:23:15.454Z,25.80
2018-02-12T15:25:43.805Z,25.80
2018-02-12T15:28:12.167Z,25.90
2018-02-12T15:30:40.647Z,25.80
2018-02-12T15:33:09.011Z,26.10
2018-02-12T15:35:37.391Z,26.00
2018-02-12T15:38:05.770Z,26.20
2018-02-12T15:40:34.411Z,25.80
2018-02-12T15:43:03.158Z,26.70
2018-02-12T15:45:31.506Z,26.70
2018-02-12T15:47:59.886Z,26.70
2018-02-12T15:50:28.227Z,26.80
2018-02-12T15:52:56.616Z,27.20
2018-02-12T15:55:25.295Z,27.20
2018-02-12T15:57:54.060Z,27.00
2018-02-12T16:00:22.406Z,27.00
2018-02-12T16:02:50.762Z,27.80
2018-02-12T16:05:19.125Z,28.10
2018-02-12T16:07:48.722Z,28.50
2018-02-12T16:10:17.085Z,28.50
2018-02-12T16:12:45.438Z,28.90
2018-02-12T16:15:14.163Z,29.20
2018-02-12T16:17:42.909Z,29.20
2018-02-12T16:20:11.298Z,29.20
2018-02-12T16:22:39.633Z,29.50
2018-02-12T16:25:08.031Z,29.80
2018-02-12T16:27:36.570Z,30.10
2018-02-12T16:30:05.325Z,30.40
2018-02-12T16:32:33.732Z,30.40
2018-02-12T16:35:02.094Z,30.80
2018-02-12T16:37:30.441Z,31.00
2018-02-12T16:39:58.821Z,31.10
2018-02-12T16:42:27.225Z,31.00
2018-02-12T16:44:55.586Z,31.30
2018-02-12T16:47:23.967Z,31.30
2018-02-12T16:49:52.326Z,31.60
2018-02-12T16:52:20.723Z,31.60
2018-02-12T16:54:49.082Z,31.40
2018-02-12T16:57:17.517Z,31.40
2018-02-12T16:59:45.903Z,31.60
2018-02-12T17:02:14.666Z,31.70
2018-02-12T17:04:43.690Z,31.70
2018-02-12T17:07:12.450Z,31.90
2018-02-12T17:09:41.057Z,31.90
2018-02-12T17:12:09.504Z,31.90
2018-02-12T17:14:37.836Z,31.90
2018-02-12T17:17:06.212Z,31.90
2018-02-12T17:19:34.613Z,32.00
2018-02-12T17:22:02.957Z,32.30
2018-02-12T17:24:31.364Z,32.30
2018-02-12T17:26:59.790Z,32.30
2018-02-12T17:29:29.841Z,32.60
2018-02-12T17:31:58.780Z,32.60
2018-02-12T17:34:28.148Z,32.80
2018-02-12T17:36:57.081Z,32.80
2018-02-12T17:39:26.000Z,32.80
2018-02-12T17:41:54.859Z,32.60
2018-02-12T17:44:23.627Z,32.60
2018-02-12T17:46:52.043Z,32.80
2018-02-12T17:49:20.810Z,32.80
2018-02-12T17:51:49.154Z,32.90
2018-02-12T17:54:17.578Z,32.80
2018-02-12T17:56:45.969Z,33.10
2018-02-12T17:59:15.112Z,33.10
2018-02-12T18:01:44.089Z,33.10
2018-02-12T18:04:13.277Z,33.40
2018-02-12T18:06:42.918Z,33.40
2018-02-12T18:09:12.000Z,33.40
2018-02-12T18:11:40.438Z,33.50
2018-02-12T18:14:08.911Z,33.70
2018-02-12T18:16:37.306Z,33.40
2018-02-12T18:19:06.965Z,33.70
2018-02-12T18:21:35.416Z,33.70
2018-02-12T18:24:04.058Z,33.50
2018-02-12T18:26:32.533Z,33.50
2018-02-12T18:29:01.325Z,33.50
2018-02-12T18:31:30.314Z,33.50
2018-02-12T18:33:59.478Z,33.50
2018-02-12T18:36:28.264Z,33.50
2018-02-12T18:38:56.752Z,34.00
2018-02-12T18:41:26.330Z,34.20
2018-02-12T18:43:55.391Z,34.20
2018-02-12T18:46:24.241Z,34.20
2018-02-12T18:48:52.640Z,34.00
2018-02-12T18:51:20.976Z,34.00
2018-02-12T18:53:49.466Z,34.20
2018-02-12T18:56:17.863Z,34.20
2018-02-12T18:58:46.894Z,34.10
2018-02-12T19:01:15.269Z,34.20
2018-02-12T19:03:43.673Z,34.20
2018-02-12T19:06:12.185Z,34.20
2018-02-12T19:08:40.567Z,34.20
2018-02-12T19:11:08.949Z,34.20
2018-02-12T19:13:38.255Z,34.20
2018-02-12T19:16:06.631Z,34.20
2018-02-12T19:18:35.076Z,39.10
2018-02-12T19:21:03.658Z,37.90
2018-02-12T19:23:32.447Z,37.10
2018-02-12T19:26:00.865Z,37.10
2018-02-12T19:28:29.225Z,36.80
2018-02-12T19:30:57.656Z,36.20
2018-02-12T19:33:26.094Z,35.90
2018-02-12T19:35:54.506Z,35.60
2018-02-12T19:38:22.902Z,35.30
2018-02-12T19:40:52.024Z,35.10
2018-02-12T19:43:20.891Z,34.80
2018-02-12T19:45:49.715Z,34.80
2018-02-12T19:48:18.169Z,34.80
2018-02-12T19:50:46.924Z,34.50
2018-02-12T19:53:15.323Z,34.50
2018-02-12T19:55:44.122Z,34.40
2018-02-12T19:58:12.918Z,34.40
2018-02-12T20:00:41.694Z,34.40
2018-02-12T20:03:10.557Z,34.20
2018-02-12T20:05:38.930Z,34.20
2018-02-12T20:08:07.298Z,34.20
2018-02-12T20:10:35.869Z,34.20
2018-02-12T20:13:04.505Z,34.20
2018-02-12T20:15:33.742Z,34.20
2018-02-12T20:18:02.134Z,34.10
2018-02-12T20:20:30.476Z,34.10
2018-02-12T20:22:59.210Z,34.10
2018-02-12T20:25:27.603Z,34.10
2018-02-12T20:27:55.923Z,34.10
2018-02-12T20:30:25.199Z,34.10
2018-02-12T20:32:53.562Z,34.10
2018-02-12T20:35:21.898Z,34.10
2018-02-12T20:37:50.547Z,34.10
2018-02-12T20:40:19.301Z,34.10
2018-02-12T20:42:47.661Z,34.10
2018-02-12T20:45:16.045Z,36.60
2018-02-12T20:47:44.394Z,35.40
2018-02-12T20:50:12.755Z,36.00
2018-02-12T20:52:41.230Z,36.00
2018-02-12T20:55:09.718Z,35.70
2018-02-12T20:57:38.558Z,35.60
2018-02-12T21:00:07.048Z,35.60
2018-02-12T21:02:35.658Z,35.40
2018-02-12T21:05:04.416Z,35.30
2018-02-12T21:07:32.819Z,35.30
2018-02-12T21:10:01.166Z,35.10
2018-02-12T21:12:29.555Z,35.10
2018-02-12T21:14:57.908Z,35.00
2018-02-12T21:17:26.786Z,35.00
2018-02-12T21:19:55.157Z,35.00
2018-02-12T21:22:24.807Z,35.00
2018-02-12T21:24:53.231Z,35.10
2018-02-12T21:27:21.967Z,35.40
2018-02-12T21:29:50.432Z,35.40
2018-02-12T21:32:18.854Z,36.50
2018-02-12T21:34:47.251Z,36.50
2018-02-12T21:37:15.645Z,36.60
2018-02-12T21:39:44.482Z,36.50
2018-02-12T21:42:12.837Z,36.30
2018-02-12T21:44:41.204Z,36.20
2018-02-12T21:47:09.587Z,36.00
2018-02-12T21:49:37.966Z,35.90
2018-02-12T21:52:06.304Z,35.90
2018-02-12T21:54:35.091Z,35.70
2018-02-12T21:57:03.830Z,35.60
2018-02-12T21:59:32.169Z,35.60
2018-02-12T22:02:00.543Z,35.40
2018-02-12T22:04:29.910Z,35.40
2018-02-12T22:06:58.750Z,35.40
2018-02-12T22:09:27.121Z,35.40
2018-02-12T22:11:55.532Z,39.10
2018-02-12T22:14:23.955Z,37.10
2018-02-12T22:16:52.733Z,38.10
2018-02-12T22:19:21.159Z,38.10
2018-02-12T22:21:49.546Z,37.80
2018-02-12T22:24:17.990Z,37.60
2018-02-12T22:26:46.763Z,37.20
2018-02-12T22:29:15.138Z,37.20
2018-02-12T22:31:43.550Z,37.10
2018-02-12T22:34:11.942Z,36.90
2018-02-12T22:36:40.595Z,36.90
2018-02-12T22:39:09.574Z,36.80
2018-02-12T22:41:38.651Z,36.30
2018-02-12T22:44:07.166Z,36.30
2018-02-12T22:46:36.037Z,36.20
2018-02-12T22:49:04.621Z,36.20
2018-02-12T22:51:33.063Z,36.00
2018-02-12T22:54:01.445Z,36.00
2018-02-12T22:56:29.935Z,36.00
2018-02-12T22:58:58.343Z,35.90
2018-02-12T23:01:27.667Z,35.70
2018-02-12T23:03:56.242Z,35.70
2018-02-12T23:06:25.045Z,35.90
2018-02-12T23:08:53.806Z,35.90
2018-02-12T23:11:22.199Z,35.90
2018-02-12T23:13:51.002Z,35.70
2018-02-12T23:16:19.382Z,35.70
2018-02-12T23:18:47.760Z,35.70
2018-02-12T23:21:16.132Z,35.60
2018-02-12T23:23:44.930Z,35.60
2018-02-12T23:26:13.455Z,35.60
2018-02-12T23:28:41.822Z,35.60
2018-02-12T23:31:10.322Z,35.60
2018-02-12T23:33:39.034Z,35.60
2018-02-12T23:36:07.519Z,35.40
2018-02-12T23:38:36.606Z,35.40
2018-02-12T23:41:05.364Z,35.40
2018-02-12T23:43:33.993Z,35.40
2018-02-12T23:46:02.336Z,35.40
2018-02-12T23:48:30.724Z,35.40
2018-02-12T23:50:59.462Z,35.40
2018-02-12T23:53:27.876Z,35.40
2018-02-12T23:55:56.258Z,35.40
2018-02-12T23:58:24.603Z,35.40
